sensor_id;sensor_type;location;lat;lon;timestamp;P1;durP1;ratioP1;P2;durP2;ratioP2
83728;SDS011;73707;56.480;-2.840;2024-03-29T00:01:22;10.43;;;3.80;;
83728;SDS011;73707;56.480;-2.840;2024-03-29T00:03:48;8.98;;;3.60;;
83728;SDS011;73707;56.480;-2.840;2024-03-29T00:06:13;7.40;;;3.30;;
83728;SDS011;73707;56.480;-2.840;2024-03-29T00:08:39;6.43;;;3.20;;
83728;SDS011;73707;56.480;-2.840;2024-03-29T00:11:04;11.20;;;4.20;;
83728;SDS011;73707;56.480;-2.840;2024-03-29T00:13:30;8.90;;;4.17;;
83728;SDS011;73707;56.480;-2.840;2024-03-29T00:15:57;8.85;;;4.13;;
83728;SDS011;73707;56.480;-2.840;2024-03-29T00:18:22;8.15;;;3.65;;
83728;SDS011;73707;56.480;-2.840;2024-03-29T00:20:48;13.50;;;4.40;;
83728;SDS011;73707;56.480;-2.840;2024-03-29T00:23:14;8.48;;;3.88;;
83728;SDS011;73707;56.480;-2.840;2024-03-29T00:25:40;5.05;;;4.00;;
83728;SDS011;73707;56.480;-2.840;2024-03-29T00:28:05;10.43;;;4.80;;
83728;SDS011;73707;56.480;-2.840;2024-03-29T00:30:31;7.10;;;3.65;;
83728;SDS011;73707;56.480;-2.840;2024-03-29T00:32:57;11.23;;;3.50;;
83728;SDS011;73707;56.480;-2.840;2024-03-29T00:35:23;11.43;;;4.25;;
83728;SDS011;73707;56.480;-2.840;2024-03-29T00:37:49;9.13;;;3.70;;
83728;SDS011;73707;56.480;-2.840;2024-03-29T00:40:15;7.00;;;3.60;;
83728;SDS011;73707;56.480;-2.840;2024-03-29T00:42:41;8.68;;;4.03;;
83728;SDS011;73707;56.480;-2.840;2024-03-29T00:45:07;9.02;;;4.13;;
83728;SDS011;73707;56.480;-2.840;2024-03-29T00:47:33;5.15;;;3.30;;
83728;SDS011;73707;56.480;-2.840;2024-03-29T00:49:59;14.23;;;4.47;;
83728;SDS011;73707;56.480;-2.840;2024-03-29T00:52:25;8.60;;;3.72;;
83728;SDS011;73707;56.480;-2.840;2024-03-29T00:54:50;7.67;;;3.53;;
83728;SDS011;73707;56.480;-2.840;2024-03-29T00:57:16;11.40;;;4.35;;
83728;SDS011;73707;56.480;-2.840;2024-03-29T00:59:42;4.93;;;3.70;;
83728;SDS011;73707;56.480;-2.840;2024-03-29T01:02:08;7.53;;;3.53;;
83728;SDS011;73707;56.480;-2.840;2024-03-29T01:04:34;7.97;;;3.60;;
83728;SDS011;73707;56.480;-2.840;2024-03-29T01:07:00;10.98;;;4.25;;
83728;SDS011;73707;56.480;-2.840;2024-03-29T01:09:26;7.30;;;3.83;;
83728;SDS011;73707;56.480;-2.840;2024-03-29T01:11:52;8.98;;;3.80;;
83728;SDS011;73707;56.480;-2.840;2024-03-29T01:14:18;9.35;;;4.25;;
83728;SDS011;73707;56.480;-2.840;2024-03-29T01:16:44;9.65;;;4.25;;
83728;SDS011;73707;56.480;-2.840;2024-03-29T01:19:10;6.27;;;4.23;;
83728;SDS011;73707;56.480;-2.840;2024-03-29T01:21:36;7.55;;;4.07;;
83728;SDS011;73707;56.480;-2.840;2024-03-29T01:24:02;6.60;;;3.80;;
83728;SDS011;73707;56.480;-2.840;2024-03-29T01:26:28;9.57;;;4.45;;
83728;SDS011;73707;56.480;-2.840;2024-03-29T01:28:54;8.53;;;4.10;;
83728;SDS011;73707;56.480;-2.840;2024-03-29T01:31:21;8.77;;;3.70;;
83728;SDS011;73707;56.480;-2.840;2024-03-29T01:33:47;4.13;;;2.65;;
83728;SDS011;73707;56.480;-2.840;2024-03-29T01:36:13;6.10;;;3.00;;
83728;SDS011;73707;56.480;-2.840;2024-03-29T01:38:39;11.48;;;3.20;;
83728;SDS011;73707;56.480;-2.840;2024-03-29T01:41:05;5.68;;;2.75;;
83728;SDS011;73707;56.480;-2.840;2024-03-29T01:43:31;4.38;;;3.88;;
83728;SDS011;73707;56.480;-2.840;2024-03-29T01:45:57;4.63;;;3.30;;
83728;SDS011;73707;56.480;-2.840;2024-03-29T01:48:24;4.80;;;4.40;;
83728;SDS011;73707;56.480;-2.840;2024-03-29T01:50:51;9.10;;;4.10;;
83728;SDS011;73707;56.480;-2.840;2024-03-29T01:53:20;6.20;;;4.95;;
83728;SDS011;73707;56.480;-2.840;2024-03-29T01:55:47;6.35;;;3.35;;
83728;SDS011;73707;56.480;-2.840;2024-03-29T01:58:12;5.00;;;3.37;;
83728;SDS011;73707;56.480;-2.840;2024-03-29T02:00:41;6.63;;;3.95;;
83728;SDS011;73707;56.480;-2.840;2024-03-29T02:03:12;4.60;;;2.63;;
83728;SDS011;73707;56.480;-2.840;2024-03-29T02:05:40;4.65;;;2.90;;
83728;SDS011;73707;56.480;-2.840;2024-03-29T02:08:07;5.50;;;3.13;;
83728;SDS011;73707;56.480;-2.840;2024-03-29T02:10:34;7.05;;;6.25;;
83728;SDS011;73707;56.480;-2.840;2024-03-29T02:13:00;8.80;;;6.55;;
83728;SDS011;73707;56.480;-2.840;2024-03-29T02:15:27;6.07;;;5.30;;
83728;SDS011;73707;56.480;-2.840;2024-03-29T02:17:56;10.85;;;7.60;;
83728;SDS011;73707;56.480;-2.840;2024-03-29T02:20:22;8.98;;;8.13;;
83728;SDS011;73707;56.480;-2.840;2024-03-29T02:23:02;7.03;;;6.35;;
83728;SDS011;73707;56.480;-2.840;2024-03-29T02:25:34;7.93;;;5.35;;
83728;SDS011;73707;56.480;-2.840;2024-03-29T02:28:01;6.40;;;5.20;;
83728;SDS011;73707;56.480;-2.840;2024-03-29T02:30:28;6.03;;;5.43;;
83728;SDS011;73707;56.480;-2.840;2024-03-29T02:32:55;5.75;;;5.15;;
83728;SDS011;73707;56.480;-2.840;2024-03-29T02:35:22;11.45;;;5.80;;
83728;SDS011;73707;56.480;-2.840;2024-03-29T02:37:47;7.60;;;6.00;;
83728;SDS011;73707;56.480;-2.840;2024-03-29T02:40:13;7.40;;;6.80;;
83728;SDS011;73707;56.480;-2.840;2024-03-29T02:42:39;8.27;;;7.72;;
83728;SDS011;73707;56.480;-2.840;2024-03-29T02:45:05;9.77;;;7.63;;
83728;SDS011;73707;56.480;-2.840;2024-03-29T02:47:30;7.70;;;6.95;;
83728;SDS011;73707;56.480;-2.840;2024-03-29T02:49:56;8.40;;;7.70;;
83728;SDS011;73707;56.480;-2.840;2024-03-29T02:52:22;7.47;;;6.80;;
83728;SDS011;73707;56.480;-2.840;2024-03-29T02:54:48;7.73;;;6.10;;
83728;SDS011;73707;56.480;-2.840;2024-03-29T02:57:13;8.30;;;7.53;;
83728;SDS011;73707;56.480;-2.840;2024-03-29T02:59:39;8.73;;;8.02;;
83728;SDS011;73707;56.480;-2.840;2024-03-29T03:02:05;7.72;;;7.13;;
83728;SDS011;73707;56.480;-2.840;2024-03-29T03:04:31;8.70;;;8.20;;
83728;SDS011;73707;56.480;-2.840;2024-03-29T03:06:56;9.27;;;7.97;;
83728;SDS011;73707;56.480;-2.840;2024-03-29T03:09:42;7.15;;;6.78;;
83728;SDS011;73707;56.480;-2.840;2024-03-29T03:12:26;6.00;;;5.60;;
83728;SDS011;73707;56.480;-2.840;2024-03-29T03:14:53;6.40;;;5.97;;
83728;SDS011;73707;56.480;-2.840;2024-03-29T03:17:19;6.15;;;5.72;;
83728;SDS011;73707;56.480;-2.840;2024-03-29T03:19:45;7.43;;;6.83;;
83728;SDS011;73707;56.480;-2.840;2024-03-29T03:22:10;7.45;;;6.82;;
83728;SDS011;73707;56.480;-2.840;2024-03-29T03:24:36;5.50;;;5.10;;
83728;SDS011;73707;56.480;-2.840;2024-03-29T03:27:02;9.00;;;8.50;;
83728;SDS011;73707;56.480;-2.840;2024-03-29T03:29:28;9.38;;;8.80;;
83728;SDS011;73707;56.480;-2.840;2024-03-29T03:31:54;9.20;;;8.50;;
83728;SDS011;73707;56.480;-2.840;2024-03-29T03:34:19;9.70;;;8.80;;
83728;SDS011;73707;56.480;-2.840;2024-03-29T03:36:45;8.00;;;7.50;;
83728;SDS011;73707;56.480;-2.840;2024-03-29T03:39:11;10.40;;;9.63;;
83728;SDS011;73707;56.480;-2.840;2024-03-29T03:41:36;9.75;;;9.25;;
83728;SDS011;73707;56.480;-2.840;2024-03-29T03:44:02;10.05;;;9.27;;
83728;SDS011;73707;56.480;-2.840;2024-03-29T03:46:28;9.00;;;8.40;;
83728;SDS011;73707;56.480;-2.840;2024-03-29T03:48:53;9.30;;;8.70;;
83728;SDS011;73707;56.480;-2.840;2024-03-29T03:51:19;9.43;;;8.60;;
83728;SDS011;73707;56.480;-2.840;2024-03-29T03:53:44;9.60;;;8.80;;
83728;SDS011;73707;56.480;-2.840;2024-03-29T03:56:10;9.68;;;9.07;;
83728;SDS011;73707;56.480;-2.840;2024-03-29T03:58:36;9.93;;;9.30;;
83728;SDS011;73707;56.480;-2.840;2024-03-29T04:01:04;10.15;;;9.65;;
83728;SDS011;73707;56.480;-2.840;2024-03-29T04:03:30;10.25;;;9.40;;
83728;SDS011;73707;56.480;-2.840;2024-03-29T04:05:56;10.13;;;9.63;;
83728;SDS011;73707;56.480;-2.840;2024-03-29T04:08:22;10.80;;;9.93;;
83728;SDS011;73707;56.480;-2.840;2024-03-29T04:10:47;10.32;;;9.73;;
83728;SDS011;73707;56.480;-2.840;2024-03-29T04:13:13;11.00;;;9.90;;
83728;SDS011;73707;56.480;-2.840;2024-03-29T04:15:39;10.52;;;9.85;;
83728;SDS011;73707;56.480;-2.840;2024-03-29T04:18:04;8.45;;;8.00;;
83728;SDS011;73707;56.480;-2.840;2024-03-29T04:20:31;10.30;;;9.70;;
83728;SDS011;73707;56.480;-2.840;2024-03-29T04:22:57;10.13;;;9.52;;
83728;SDS011;73707;56.480;-2.840;2024-03-29T04:25:23;10.37;;;9.73;;
83728;SDS011;73707;56.480;-2.840;2024-03-29T04:27:48;10.07;;;9.48;;
83728;SDS011;73707;56.480;-2.840;2024-03-29T04:30:14;9.50;;;8.87;;
83728;SDS011;73707;56.480;-2.840;2024-03-29T04:32:40;10.30;;;9.50;;
83728;SDS011;73707;56.480;-2.840;2024-03-29T04:35:06;11.00;;;10.07;;
83728;SDS011;73707;56.480;-2.840;2024-03-29T04:37:31;10.73;;;9.93;;
83728;SDS011;73707;56.480;-2.840;2024-03-29T04:39:57;10.23;;;9.43;;
83728;SDS011;73707;56.480;-2.840;2024-03-29T04:42:23;10.50;;;9.90;;
83728;SDS011;73707;56.480;-2.840;2024-03-29T04:44:48;8.20;;;7.70;;
83728;SDS011;73707;56.480;-2.840;2024-03-29T04:47:14;8.93;;;8.33;;
83728;SDS011;73707;56.480;-2.840;2024-03-29T04:49:40;7.38;;;6.88;;
83728;SDS011;73707;56.480;-2.840;2024-03-29T04:52:06;8.27;;;7.67;;
83728;SDS011;73707;56.480;-2.840;2024-03-29T04:54:32;8.02;;;7.60;;
83728;SDS011;73707;56.480;-2.840;2024-03-29T04:56:59;9.00;;;8.30;;
83728;SDS011;73707;56.480;-2.840;2024-03-29T04:59:31;8.65;;;8.15;;
83728;SDS011;73707;56.480;-2.840;2024-03-29T05:01:58;9.32;;;8.50;;
83728;SDS011;73707;56.480;-2.840;2024-03-29T05:04:24;8.65;;;8.25;;
83728;SDS011;73707;56.480;-2.840;2024-03-29T05:09:20;7.30;;;6.75;;
83728;SDS011;73707;56.480;-2.840;2024-03-29T05:11:46;7.30;;;6.88;;
83728;SDS011;73707;56.480;-2.840;2024-03-29T05:14:15;8.60;;;7.90;;
83728;SDS011;73707;56.480;-2.840;2024-03-29T05:16:43;8.65;;;7.97;;
83728;SDS011;73707;56.480;-2.840;2024-03-29T05:19:12;8.15;;;7.65;;
83728;SDS011;73707;56.480;-2.840;2024-03-29T05:21:39;9.25;;;8.60;;
83728;SDS011;73707;56.480;-2.840;2024-03-29T05:24:05;8.43;;;7.93;;
83728;SDS011;73707;56.480;-2.840;2024-03-29T05:26:31;8.02;;;7.55;;
83728;SDS011;73707;56.480;-2.840;2024-03-29T05:28:57;7.55;;;7.15;;
83728;SDS011;73707;56.480;-2.840;2024-03-29T05:31:23;8.15;;;7.72;;
83728;SDS011;73707;56.480;-2.840;2024-03-29T05:33:50;8.23;;;7.78;;
83728;SDS011;73707;56.480;-2.840;2024-03-29T05:36:15;8.48;;;8.00;;
83728;SDS011;73707;56.480;-2.840;2024-03-29T05:38:41;8.33;;;7.57;;
83728;SDS011;73707;56.480;-2.840;2024-03-29T05:41:07;8.50;;;8.00;;
83728;SDS011;73707;56.480;-2.840;2024-03-29T05:43:33;9.20;;;8.30;;
83728;SDS011;73707;56.480;-2.840;2024-03-29T05:45:59;8.80;;;8.38;;
83728;SDS011;73707;56.480;-2.840;2024-03-29T05:48:27;8.27;;;7.75;;
83728;SDS011;73707;56.480;-2.840;2024-03-29T05:50:54;8.15;;;7.55;;
83728;SDS011;73707;56.480;-2.840;2024-03-29T05:53:19;8.15;;;7.75;;
83728;SDS011;73707;56.480;-2.840;2024-03-29T05:55:45;8.90;;;8.20;;
83728;SDS011;73707;56.480;-2.840;2024-03-29T05:58:11;9.02;;;8.52;;
83728;SDS011;73707;56.480;-2.840;2024-03-29T06:00:42;9.37;;;8.77;;
83728;SDS011;73707;56.480;-2.840;2024-03-29T06:03:07;8.90;;;8.40;;
83728;SDS011;73707;56.480;-2.840;2024-03-29T06:05:33;9.47;;;8.80;;
83728;SDS011;73707;56.480;-2.840;2024-03-29T06:07:59;9.25;;;8.65;;
83728;SDS011;73707;56.480;-2.840;2024-03-29T06:10:24;9.17;;;8.37;;
83728;SDS011;73707;56.480;-2.840;2024-03-29T06:12:50;9.55;;;8.90;;
83728;SDS011;73707;56.480;-2.840;2024-03-29T06:15:16;9.60;;;9.00;;
83728;SDS011;73707;56.480;-2.840;2024-03-29T06:18:00;9.38;;;8.70;;
83728;SDS011;73707;56.480;-2.840;2024-03-29T06:20:25;9.87;;;9.17;;
83728;SDS011;73707;56.480;-2.840;2024-03-29T06:22:51;9.38;;;8.73;;
83728;SDS011;73707;56.480;-2.840;2024-03-29T06:25:17;9.00;;;8.50;;
83728;SDS011;73707;56.480;-2.840;2024-03-29T06:27:42;9.20;;;8.80;;
83728;SDS011;73707;56.480;-2.840;2024-03-29T06:30:12;9.88;;;9.27;;
83728;SDS011;73707;56.480;-2.840;2024-03-29T06:32:38;10.45;;;9.85;;
83728;SDS011;73707;56.480;-2.840;2024-03-29T06:35:04;11.43;;;10.77;;
83728;SDS011;73707;56.480;-2.840;2024-03-29T06:37:31;11.68;;;11.00;;
83728;SDS011;73707;56.480;-2.840;2024-03-29T06:39:57;11.25;;;10.60;;
83728;SDS011;73707;56.480;-2.840;2024-03-29T06:42:22;11.57;;;11.05;;
83728;SDS011;73707;56.480;-2.840;2024-03-29T06:44:48;11.60;;;10.80;;
83728;SDS011;73707;56.480;-2.840;2024-03-29T06:47:14;9.43;;;8.63;;
83728;SDS011;73707;56.480;-2.840;2024-03-29T06:49:40;9.38;;;8.88;;
83728;SDS011;73707;56.480;-2.840;2024-03-29T06:52:06;9.27;;;8.77;;
83728;SDS011;73707;56.480;-2.840;2024-03-29T06:54:32;9.60;;;9.00;;
83728;SDS011;73707;56.480;-2.840;2024-03-29T06:56:58;10.02;;;9.40;;
83728;SDS011;73707;56.480;-2.840;2024-03-29T06:59:24;11.13;;;10.32;;
83728;SDS011;73707;56.480;-2.840;2024-03-29T07:01:51;9.88;;;9.48;;
83728;SDS011;73707;56.480;-2.840;2024-03-29T07:04:20;9.52;;;9.05;;
83728;SDS011;73707;56.480;-2.840;2024-03-29T07:06:52;8.32;;;8.02;;
83728;SDS011;73707;56.480;-2.840;2024-03-29T07:09:19;8.65;;;8.25;;
83728;SDS011;73707;56.480;-2.840;2024-03-29T07:11:46;8.95;;;8.45;;
83728;SDS011;73707;56.480;-2.840;2024-03-29T07:14:13;10.30;;;9.20;;
83728;SDS011;73707;56.480;-2.840;2024-03-29T07:16:42;8.33;;;8.03;;
83728;SDS011;73707;56.480;-2.840;2024-03-29T07:19:09;9.40;;;8.90;;
83728;SDS011;73707;56.480;-2.840;2024-03-29T07:21:38;9.00;;;8.50;;
83728;SDS011;73707;56.480;-2.840;2024-03-29T07:24:04;8.93;;;8.32;;
83728;SDS011;73707;56.480;-2.840;2024-03-29T07:26:30;9.30;;;8.80;;
83728;SDS011;73707;56.480;-2.840;2024-03-29T07:28:56;8.90;;;8.40;;
83728;SDS011;73707;56.480;-2.840;2024-03-29T07:31:21;9.57;;;8.90;;
83728;SDS011;73707;56.480;-2.840;2024-03-29T07:33:47;8.90;;;8.37;;
83728;SDS011;73707;56.480;-2.840;2024-03-29T07:36:13;7.32;;;7.03;;
83728;SDS011;73707;56.480;-2.840;2024-03-29T07:38:39;8.55;;;8.05;;
83728;SDS011;73707;56.480;-2.840;2024-03-29T07:41:05;7.93;;;7.45;;
83728;SDS011;73707;56.480;-2.840;2024-03-29T07:43:51;9.30;;;8.67;;
83728;SDS011;73707;56.480;-2.840;2024-03-29T07:46:18;8.23;;;7.72;;
83728;SDS011;73707;56.480;-2.840;2024-03-29T07:48:44;9.38;;;8.55;;
83728;SDS011;73707;56.480;-2.840;2024-03-29T07:51:09;10.17;;;9.17;;
83728;SDS011;73707;56.480;-2.840;2024-03-29T07:53:35;8.70;;;8.10;;
83728;SDS011;73707;56.480;-2.840;2024-03-29T07:56:01;8.70;;;8.00;;
83728;SDS011;73707;56.480;-2.840;2024-03-29T07:58:26;8.83;;;8.17;;
83728;SDS011;73707;56.480;-2.840;2024-03-29T08:00:52;8.30;;;7.85;;
83728;SDS011;73707;56.480;-2.840;2024-03-29T08:03:18;7.00;;;6.57;;
83728;SDS011;73707;56.480;-2.840;2024-03-29T08:05:56;10.45;;;7.50;;
83728;SDS011;73707;56.480;-2.840;2024-03-29T08:08:31;7.47;;;7.03;;
83728;SDS011;73707;56.480;-2.840;2024-03-29T08:11:00;7.68;;;7.15;;
83728;SDS011;73707;56.480;-2.840;2024-03-29T08:13:26;7.72;;;7.28;;
83728;SDS011;73707;56.480;-2.840;2024-03-29T08:15:59;7.30;;;7.00;;
83728;SDS011;73707;56.480;-2.840;2024-03-29T08:18:26;8.00;;;7.60;;
83728;SDS011;73707;56.480;-2.840;2024-03-29T08:20:52;7.95;;;7.50;;
83728;SDS011;73707;56.480;-2.840;2024-03-29T08:23:20;7.22;;;6.93;;
83728;SDS011;73707;56.480;-2.840;2024-03-29T08:28:22;7.80;;;7.30;;
83728;SDS011;73707;56.480;-2.840;2024-03-29T08:30:58;7.50;;;7.00;;
83728;SDS011;73707;56.480;-2.840;2024-03-29T08:33:24;7.55;;;7.10;;
83728;SDS011;73707;56.480;-2.840;2024-03-29T08:35:49;7.20;;;6.80;;
83728;SDS011;73707;56.480;-2.840;2024-03-29T08:38:15;7.17;;;6.87;;
83728;SDS011;73707;56.480;-2.840;2024-03-29T08:40:41;7.97;;;7.55;;
83728;SDS011;73707;56.480;-2.840;2024-03-29T08:43:08;7.70;;;7.40;;
83728;SDS011;73707;56.480;-2.840;2024-03-29T08:45:35;7.70;;;7.30;;
83728;SDS011;73707;56.480;-2.840;2024-03-29T08:48:05;8.07;;;7.63;;
83728;SDS011;73707;56.480;-2.840;2024-03-29T08:50:32;7.22;;;6.93;;
83728;SDS011;73707;56.480;-2.840;2024-03-29T08:52:58;7.72;;;7.13;;
83728;SDS011;73707;56.480;-2.840;2024-03-29T08:55:24;7.20;;;6.80;;
83728;SDS011;73707;56.480;-2.840;2024-03-29T08:57:51;7.20;;;6.80;;
83728;SDS011;73707;56.480;-2.840;2024-03-29T09:00:16;8.13;;;7.53;;
83728;SDS011;73707;56.480;-2.840;2024-03-29T09:02:42;7.55;;;7.15;;
83728;SDS011;73707;56.480;-2.840;2024-03-29T09:05:08;7.22;;;6.93;;
83728;SDS011;73707;56.480;-2.840;2024-03-29T09:07:33;7.50;;;6.90;;
83728;SDS011;73707;56.480;-2.840;2024-03-29T09:10:00;7.10;;;6.80;;
83728;SDS011;73707;56.480;-2.840;2024-03-29T09:12:25;7.85;;;7.35;;
83728;SDS011;73707;56.480;-2.840;2024-03-29T09:14:51;8.15;;;7.75;;
83728;SDS011;73707;56.480;-2.840;2024-03-29T09:17:17;7.80;;;7.50;;
83728;SDS011;73707;56.480;-2.840;2024-03-29T09:19:44;8.27;;;7.78;;
83728;SDS011;73707;56.480;-2.840;2024-03-29T09:22:09;8.40;;;7.90;;
83728;SDS011;73707;56.480;-2.840;2024-03-29T09:24:35;8.50;;;8.00;;
83728;SDS011;73707;56.480;-2.840;2024-03-29T09:27:01;8.50;;;8.00;;
83728;SDS011;73707;56.480;-2.840;2024-03-29T09:29:26;8.03;;;7.63;;
83728;SDS011;73707;56.480;-2.840;2024-03-29T09:31:52;8.27;;;7.78;;
83728;SDS011;73707;56.480;-2.840;2024-03-29T09:34:17;9.20;;;8.50;;
83728;SDS011;73707;56.480;-2.840;2024-03-29T09:36:43;8.55;;;7.75;;
83728;SDS011;73707;56.480;-2.840;2024-03-29T09:39:09;7.93;;;7.30;;
83728;SDS011;73707;56.480;-2.840;2024-03-29T09:41:34;9.43;;;8.63;;
83728;SDS011;73707;56.480;-2.840;2024-03-29T09:44:03;10.15;;;8.50;;
83728;SDS011;73707;56.480;-2.840;2024-03-29T09:46:31;17.70;;;8.85;;
83728;SDS011;73707;56.480;-2.840;2024-03-29T09:48:58;24.85;;;11.32;;
83728;SDS011;73707;56.480;-2.840;2024-03-29T09:51:27;13.95;;;8.50;;
83728;SDS011;73707;56.480;-2.840;2024-03-29T09:53:53;9.02;;;7.13;;
83728;SDS011;73707;56.480;-2.840;2024-03-29T09:56:25;7.88;;;7.38;;
83728;SDS011;73707;56.480;-2.840;2024-03-29T09:58:51;9.85;;;8.35;;
83728;SDS011;73707;56.480;-2.840;2024-03-29T10:01:17;28.52;;;12.80;;
83728;SDS011;73707;56.480;-2.840;2024-03-29T10:03:45;21.23;;;9.90;;
83728;SDS011;73707;56.480;-2.840;2024-03-29T10:06:15;32.53;;;12.65;;
83728;SDS011;73707;56.480;-2.840;2024-03-29T10:08:44;23.52;;;9.95;;
83728;SDS011;73707;56.480;-2.840;2024-03-29T10:11:09;20.30;;;9.85;;
83728;SDS011;73707;56.480;-2.840;2024-03-29T10:13:35;12.98;;;9.77;;
83728;SDS011;73707;56.480;-2.840;2024-03-29T10:16:02;11.57;;;8.77;;
83728;SDS011;73707;56.480;-2.840;2024-03-29T10:18:29;17.43;;;9.13;;
83728;SDS011;73707;56.480;-2.840;2024-03-29T10:21:00;8.60;;;7.82;;
83728;SDS011;73707;56.480;-2.840;2024-03-29T10:23:26;11.50;;;8.57;;
83728;SDS011;73707;56.480;-2.840;2024-03-29T10:25:52;23.23;;;9.43;;
83728;SDS011;73707;56.480;-2.840;2024-03-29T10:28:21;9.15;;;8.40;;
83728;SDS011;73707;56.480;-2.840;2024-03-29T10:30:47;10.57;;;9.67;;
83728;SDS011;73707;56.480;-2.840;2024-03-29T10:33:14;29.95;;;10.27;;
83728;SDS011;73707;56.480;-2.840;2024-03-29T10:35:43;15.98;;;9.68;;
83728;SDS011;73707;56.480;-2.840;2024-03-29T10:38:10;8.70;;;7.93;;
83728;SDS011;73707;56.480;-2.840;2024-03-29T10:40:39;10.43;;;8.20;;
83728;SDS011;73707;56.480;-2.840;2024-03-29T10:43:09;16.55;;;9.18;;
83728;SDS011;73707;56.480;-2.840;2024-03-29T10:45:41;8.63;;;7.97;;
83728;SDS011;73707;56.480;-2.840;2024-03-29T10:48:09;19.50;;;10.10;;
83728;SDS011;73707;56.480;-2.840;2024-03-29T10:50:35;10.23;;;9.23;;
83728;SDS011;73707;56.480;-2.840;2024-03-29T10:53:02;11.70;;;9.43;;
83728;SDS011;73707;56.480;-2.840;2024-03-29T10:55:34;12.23;;;9.70;;
83728;SDS011;73707;56.480;-2.840;2024-03-29T10:58:01;10.38;;;8.65;;
83728;SDS011;73707;56.480;-2.840;2024-03-29T11:00:28;11.35;;;10.00;;
83728;SDS011;73707;56.480;-2.840;2024-03-29T11:05:38;11.05;;;9.85;;
83728;SDS011;73707;56.480;-2.840;2024-03-29T11:08:22;10.00;;;9.30;;
83728;SDS011;73707;56.480;-2.840;2024-03-29T11:10:53;9.95;;;9.27;;
83728;SDS011;73707;56.480;-2.840;2024-03-29T11:15:56;9.70;;;9.00;;
83728;SDS011;73707;56.480;-2.840;2024-03-29T11:18:24;11.10;;;10.20;;
83728;SDS011;73707;56.480;-2.840;2024-03-29T11:20:51;15.43;;;10.32;;
83728;SDS011;73707;56.480;-2.840;2024-03-29T11:23:19;11.15;;;10.35;;
83728;SDS011;73707;56.480;-2.840;2024-03-29T11:25:48;11.57;;;6.90;;
83728;SDS011;73707;56.480;-2.840;2024-03-29T11:36:00;7.43;;;6.47;;
83728;SDS011;73707;56.480;-2.840;2024-03-29T11:38:38;6.88;;;6.47;;
83728;SDS011;73707;56.480;-2.840;2024-03-29T11:43:51;11.27;;;7.10;;
83728;SDS011;73707;56.480;-2.840;2024-03-29T11:46:18;15.83;;;7.77;;
83728;SDS011;73707;56.480;-2.840;2024-03-29T11:48:44;13.65;;;7.78;;
83728;SDS011;73707;56.480;-2.840;2024-03-29T11:51:19;9.55;;;8.55;;
83728;SDS011;73707;56.480;-2.840;2024-03-29T11:53:47;10.77;;;6.68;;
83728;SDS011;73707;56.480;-2.840;2024-03-29T11:56:15;20.20;;;9.05;;
83728;SDS011;73707;56.480;-2.840;2024-03-29T11:58:41;29.87;;;9.90;;
83728;SDS011;73707;56.480;-2.840;2024-03-29T12:01:07;12.43;;;7.53;;
83728;SDS011;73707;56.480;-2.840;2024-03-29T12:03:37;31.77;;;9.63;;
83728;SDS011;73707;56.480;-2.840;2024-03-29T12:06:04;27.40;;;7.72;;
83728;SDS011;73707;56.480;-2.840;2024-03-29T12:08:31;23.17;;;9.10;;
83728;SDS011;73707;56.480;-2.840;2024-03-29T12:11:02;10.43;;;7.90;;
83728;SDS011;73707;56.480;-2.840;2024-03-29T12:13:28;13.95;;;8.98;;
83728;SDS011;73707;56.480;-2.840;2024-03-29T12:15:55;12.97;;;7.33;;
83728;SDS011;73707;56.480;-2.840;2024-03-29T12:18:21;9.00;;;7.17;;
83728;SDS011;73707;56.480;-2.840;2024-03-29T12:20:48;12.15;;;7.28;;
83728;SDS011;73707;56.480;-2.840;2024-03-29T12:23:18;6.72;;;6.13;;
83728;SDS011;73707;56.480;-2.840;2024-03-29T12:25:44;6.57;;;6.00;;
83728;SDS011;73707;56.480;-2.840;2024-03-29T12:28:11;13.05;;;8.18;;
83728;SDS011;73707;56.480;-2.840;2024-03-29T12:30:40;12.05;;;7.13;;
83728;SDS011;73707;56.480;-2.840;2024-03-29T12:33:14;12.70;;;7.67;;
83728;SDS011;73707;56.480;-2.840;2024-03-29T12:35:42;38.53;;;10.57;;
83728;SDS011;73707;56.480;-2.840;2024-03-29T12:38:18;6.57;;;6.18;;
83728;SDS011;73707;56.480;-2.840;2024-03-29T12:40:45;21.05;;;8.27;;
83728;SDS011;73707;56.480;-2.840;2024-03-29T12:43:13;15.63;;;9.65;;
83728;SDS011;73707;56.480;-2.840;2024-03-29T12:45:42;7.65;;;7.10;;
83728;SDS011;73707;56.480;-2.840;2024-03-29T12:50:39;20.55;;;8.50;;
83728;SDS011;73707;56.480;-2.840;2024-03-29T12:53:07;11.83;;;8.77;;
83728;SDS011;73707;56.480;-2.840;2024-03-29T12:55:35;8.98;;;7.90;;
83728;SDS011;73707;56.480;-2.840;2024-03-29T12:58:04;15.38;;;7.68;;
83728;SDS011;73707;56.480;-2.840;2024-03-29T13:00:33;7.80;;;6.83;;
83728;SDS011;73707;56.480;-2.840;2024-03-29T13:02:59;7.30;;;6.70;;
83728;SDS011;73707;56.480;-2.840;2024-03-29T13:05:26;9.70;;;7.30;;
83728;SDS011;73707;56.480;-2.840;2024-03-29T13:07:53;7.45;;;6.50;;
83728;SDS011;73707;56.480;-2.840;2024-03-29T13:10:18;7.55;;;6.63;;
83728;SDS011;73707;56.480;-2.840;2024-03-29T13:12:45;6.53;;;5.93;;
83728;SDS011;73707;56.480;-2.840;2024-03-29T13:17:44;7.38;;;6.68;;
83728;SDS011;73707;56.480;-2.840;2024-03-29T13:20:11;7.80;;;7.30;;
83728;SDS011;73707;56.480;-2.840;2024-03-29T13:22:38;5.90;;;5.55;;
83728;SDS011;73707;56.480;-2.840;2024-03-29T13:25:04;8.30;;;3.67;;
83728;SDS011;73707;56.480;-2.840;2024-03-29T13:27:31;2.30;;;1.45;;
83728;SDS011;73707;56.480;-2.840;2024-03-29T13:29:57;10.43;;;3.38;;
83728;SDS011;73707;56.480;-2.840;2024-03-29T13:32:22;4.33;;;1.17;;
83728;SDS011;73707;56.480;-2.840;2024-03-29T13:34:48;5.43;;;2.20;;
83728;SDS011;73707;56.480;-2.840;2024-03-29T13:37:13;4.80;;;2.00;;
83728;SDS011;73707;56.480;-2.840;2024-03-29T13:39:39;6.05;;;1.88;;
83728;SDS011;73707;56.480;-2.840;2024-03-29T13:42:05;2.17;;;1.50;;
83728;SDS011;73707;56.480;-2.840;2024-03-29T13:44:30;1.70;;;1.27;;
83728;SDS011;73707;56.480;-2.840;2024-03-29T13:46:59;1.90;;;0.90;;
83728;SDS011;73707;56.480;-2.840;2024-03-29T13:49:28;1.10;;;0.75;;
83728;SDS011;73707;56.480;-2.840;2024-03-29T13:51:55;0.73;;;0.73;;
83728;SDS011;73707;56.480;-2.840;2024-03-29T13:54:21;1.30;;;0.70;;
83728;SDS011;73707;56.480;-2.840;2024-03-29T13:56:48;0.73;;;0.73;;
83728;SDS011;73707;56.480;-2.840;2024-03-29T13:59:13;0.67;;;0.60;;
83728;SDS011;73707;56.480;-2.840;2024-03-29T14:01:39;2.20;;;0.90;;
83728;SDS011;73707;56.480;-2.840;2024-03-29T14:04:04;1.50;;;0.70;;
83728;SDS011;73707;56.480;-2.840;2024-03-29T14:06:30;2.40;;;0.80;;
83728;SDS011;73707;56.480;-2.840;2024-03-29T14:08:56;2.40;;;0.80;;
83728;SDS011;73707;56.480;-2.840;2024-03-29T14:11:22;5.65;;;0.98;;
83728;SDS011;73707;56.480;-2.840;2024-03-29T14:13:48;1.80;;;0.50;;
83728;SDS011;73707;56.480;-2.840;2024-03-29T14:16:16;0.70;;;0.60;;
83728;SDS011;73707;56.480;-2.840;2024-03-29T14:18:41;0.65;;;0.52;;
83728;SDS011;73707;56.480;-2.840;2024-03-29T14:21:07;1.08;;;0.75;;
83728;SDS011;73707;56.480;-2.840;2024-03-29T14:23:33;1.30;;;0.70;;
83728;SDS011;73707;56.480;-2.840;2024-03-29T14:25:58;1.20;;;0.83;;
83728;SDS011;73707;56.480;-2.840;2024-03-29T14:28:24;7.45;;;1.60;;
83728;SDS011;73707;56.480;-2.840;2024-03-29T14:30:49;0.70;;;0.60;;
83728;SDS011;73707;56.480;-2.840;2024-03-29T14:33:15;1.17;;;0.63;;
83728;SDS011;73707;56.480;-2.840;2024-03-29T14:35:41;0.77;;;0.60;;
83728;SDS011;73707;56.480;-2.840;2024-03-29T14:38:06;0.50;;;0.50;;
83728;SDS011;73707;56.480;-2.840;2024-03-29T14:40:32;0.80;;;0.70;;
83728;SDS011;73707;56.480;-2.840;2024-03-29T14:42:58;2.95;;;0.93;;
83728;SDS011;73707;56.480;-2.840;2024-03-29T14:45:24;3.38;;;0.98;;
83728;SDS011;73707;56.480;-2.840;2024-03-29T14:47:50;1.33;;;0.50;;
83728;SDS011;73707;56.480;-2.840;2024-03-29T14:50:15;0.40;;;0.40;;
83728;SDS011;73707;56.480;-2.840;2024-03-29T14:52:43;1.38;;;0.50;;
83728;SDS011;73707;56.480;-2.840;2024-03-29T14:55:09;1.90;;;0.75;;